My Meet Scores
Tori Schrieber, Gymnastics and Cheerleading Academy CT - MyMeetScores.com
Top100 | Top Teams | Upcoming Meets | Completed Meets | Latest | Add Scores | Help| Support | Bookmark and Share

Tori Schrieber, Gymnastics and Cheerleading Academy CT
Personal Bests
LevelVault BarsBeamFloorAA
49.0009.000 9.2009.30036.100
59.3258.800 8.8259.17536.000
69.3508.800 9.4009.35036.175
XB9.6009.450 9.6009.00037.400
XS9.3009.225 9.6259.35037.275
Meet Scores
Date Meet Team Session Level Division Vault Bars Beam Floor AA
2020-02-15 Chelsea Piers Winter Challenge Gymnastics and Cheerleading Academy CT C1 6 Older 9.150 1T 8.800 7 8.700 6 8.900 7T 35.550 2
2020-01-31 Friendship Classic 2020 Gymnastics and Cheerleading Academy CT 06 6 Buddies 8.850 4T 8.800 3T 9.400 1 9.125 6 36.175 1
2020-01-17 Crimson Classic 2020 Gymnastics and Cheerleading Academy CT 1A 6 B 9.000 3 8.625 4 8.900 3 9.275 2 35.800 2
2020-01-10 Little Boston Invitational Gymnastics and Cheerleading Academy CT B03 6 SR 9.200 1 7.700 14 8.525 14T 9.350 2 34.775 10T
2019-12-06 Rhode Island Invitational Gymnastics and Cheerleading Academy CT SU3 6 senior 9.350 1 8.750 3T 8.650 6 9.250 4 36.000 2
2019-11-09 2019 PHS Turkey Tumble Gymnastics and Cheerleading Academy CT 3 6 Jr C 8.425 6 8.275 8 8.725 8 8.700 7T 34.125 5
2019-02-01 State Level 4&5 Gymnastics and Cheerleading Academy CT 5 5 13 yrs 9.325 2 8.800 12 8.150 31 9.025 13T 35.300 13
2019-01-25 Kinetic Kids Invitational 2019 Gymnastics and Cheerleading Academy CT 2 5 Older 9.200 1 8.250 2 8.800 4 8.775 2 35.025 1
2019-01-18 DGS Northeast Invite Gymnastics and Cheerleading Academy CT 5A 5 Jr B 9.200 2 8.800 2 8.350 6 9.150 1 35.500 1
2019-01-11 2019 New Years Blast Gymnastics and Cheerleading Academy CT 3 5 Senior 9.250 2 8.775 3 8.800 6 9.175 1 36.000 2
2018-11-30 Rhode Island Invitational Gymnastics and Cheerleading Academy CT SU3 5 Senior 9.325 1 8.800 3 8.700 5 9.150 1 35.975 1
2018-11-17 2018 Connecticut Judge's Cup Gymnastics and Cheerleading Academy CT 5 5 12+ yrs. 8.950 9T 7.600 33 8.275 36 8.950 21 33.775 20T
2018-11-10 2018 Turkey Tumble Gymnastics and Cheerleading Academy CT 3 5 Older 9.300 1 7.900 2 8.825 5 8.450 2T 34.475 1
2018-02-03 Level 4 & 5 States Gymnastics and Cheerleading Academy CT 4 4 Sr.A 8.875 22 8.450 24T 8.075 57 8.575 32T 33.975 33
2018-01-26 2018 American Invitational Gymnastics and Cheerleading Academy CT 12B 4 Senior 8.750 11 9.000 9T 9.200 6T 9.150 10T 36.100 7
2018-01-19 Kinetic Kids Invitational Gymnastics and Cheerleading Academy CT 2 4 Sr B 8.850 9 8.850 8 8.950 6 9.300 1T 35.950 5T
2017-11-30 Rhode Island Invitational Gymnastics and Cheerleading Academy CT SS1 4 Senior 8.700 6T 8.450 4T 7.850 10 8.800 5T 33.800 8
2017-11-10 2017 Phs Turkey Tumble Gymnastics and Cheerleading Academy CT 1 4 Sr B 9.000 5 8.650 4 8.100 8T 8.150 8T 33.900 4
2017-05-06 2017 Connecticut XS State Championships Gymnastics and Cheerleading Academy CT 5 XS Jr E 9.300 3T 9.000 8T 9.625 1 9.350 6 37.275 3
2016-12-02 Rhode Island Invitational Gymnastics and Cheerleading Academy CT WU2 XS Intermedia 8.925 5 9.225 3 9.400 2T 9.150 1 36.700 2
2016-05-15 2016 Connecticut XB State Cup Gymnastics and Cheerleading Academy CT 1 XB All Ages 9.600 1 9.200 9T 9.600 5T 9.000 31T 37.400 3
2016-02-13 Chelsea Piers Winter Challenge Gymnastics and Cheerleading Academy CT CT5 XB JR 9.500 1 9.325 8 9.275 12 8.650 13T 36.750 4
2016-01-15 DGS Invitational Gymnastics and Cheerleading Academy CT B12 XB 10 yrs. 9.400 2 9.450 1 8.500 10 8.800 9 36.150 5
Get your scores on
a t-shirt, pin, or hoodie

www.lazysuits.com